createdAt,value
2022-12-15T00:02:27.371Z,58.70
2022-12-15T00:05:12.725Z,59.53
2022-12-15T00:07:58.317Z,57.10
2022-12-15T00:10:43.988Z,54.85
2022-12-15T00:13:32.129Z,54.40
2022-12-15T00:16:17.923Z,52.95
2022-12-15T00:19:03.489Z,52.63
2022-12-15T00:21:49.161Z,55.03
2022-12-15T00:24:35.081Z,52.17
2022-12-15T00:27:20.533Z,55.88
2022-12-15T00:30:07.207Z,49.53
2022-12-15T00:32:53.130Z,52.33
2022-12-15T00:35:38.563Z,52.85
2022-12-15T00:38:27.140Z,50.33
2022-12-15T00:40:58.982Z,50.95
2022-12-15T00:43:28.006Z,52.63
2022-12-15T00:46:15.111Z,54.10
2022-12-15T00:48:44.002Z,56.00
2022-12-15T00:51:11.684Z,60.50
2022-12-15T00:53:58.183Z,58.90
2022-12-15T00:56:45.007Z,56.70
2022-12-15T00:59:30.990Z,55.13
2022-12-15T01:02:18.440Z,55.30
2022-12-15T01:05:03.972Z,52.17
2022-12-15T01:07:49.607Z,54.38
2022-12-15T01:10:36.780Z,54.40
2022-12-15T01:13:23.246Z,51.67
2022-12-15T01:16:08.967Z,49.20
2022-12-15T01:18:56.011Z,49.45
2022-12-15T01:21:25.548Z,54.85
2022-12-15T01:23:54.087Z,53.60
2022-12-15T01:26:22.171Z,59.70
2022-12-15T01:28:50.326Z,59.00
2022-12-15T01:31:18.267Z,52.95
2022-12-15T01:33:47.597Z,53.83
2022-12-15T01:36:15.692Z,56.47
2022-12-15T01:38:45.096Z,52.88
2022-12-15T01:41:15.133Z,54.92
2022-12-15T01:43:43.024Z,54.65
2022-12-15T01:46:12.844Z,55.75
2022-12-15T01:48:44.078Z,55.45
2022-12-15T01:51:21.044Z,57.20
2022-12-15T01:53:54.487Z,55.33
2022-12-15T01:56:24.086Z,55.92
2022-12-15T01:58:55.281Z,56.65
2022-12-15T02:01:23.403Z,58.95
2022-12-15T02:03:52.135Z,56.03
2022-12-15T02:06:22.726Z,60.90
2022-12-15T02:08:54.890Z,64.88
2022-12-15T02:11:42.790Z,65.45
2022-12-15T02:14:12.383Z,69.63
2022-12-15T02:16:55.600Z,63.00
2022-12-15T02:19:53.530Z,67.45
2022-12-15T02:22:33.142Z,66.30
2022-12-15T02:25:29.936Z,64.20
2022-12-15T02:28:03.107Z,69.60
2022-12-15T02:30:45.971Z,60.97
2022-12-15T02:33:22.327Z,62.78
2022-12-15T02:35:58.612Z,62.17
2022-12-15T02:38:31.395Z,63.13
2022-12-15T02:41:00.806Z,65.25
2022-12-15T02:43:30.853Z,66.38
2022-12-15T02:46:16.742Z,70.45
2022-12-15T02:48:56.312Z,67.30
2022-12-15T02:51:36.810Z,65.63
2022-12-15T02:54:36.717Z,69.00
2022-12-15T02:57:11.262Z,64.80
2022-12-15T02:59:44.100Z,64.38
2022-12-15T03:02:14.826Z,65.07
2022-12-15T03:04:45.677Z,68.43
2022-12-15T03:07:15.593Z,65.95
2022-12-15T03:09:43.610Z,62.90
2022-12-15T03:12:11.863Z,64.68
2022-12-15T03:14:39.799Z,64.05
2022-12-15T03:17:07.894Z,61.42
2022-12-15T03:19:37.285Z,60.80
2022-12-15T03:22:05.334Z,60.53
2022-12-15T03:24:33.551Z,65.80
2022-12-15T03:27:01.558Z,67.80
2022-12-15T03:29:29.762Z,65.22
2022-12-15T03:31:57.813Z,67.22
2022-12-15T03:34:26.006Z,64.90
2022-12-15T03:36:55.323Z,59.20
2022-12-15T03:39:23.277Z,63.17
2022-12-15T03:41:51.231Z,62.75
2022-12-15T03:44:19.190Z,65.13
2022-12-15T03:46:47.483Z,65.20
2022-12-15T03:49:15.449Z,66.40
2022-12-15T03:51:43.556Z,70.00
2022-12-15T03:54:13.323Z,64.75
2022-12-15T03:56:41.484Z,63.15
2022-12-15T03:59:09.459Z,64.82
2022-12-15T04:01:38.201Z,60.38
2022-12-15T04:04:06.716Z,57.10
2022-12-15T04:06:34.644Z,59.97
2022-12-15T04:09:02.868Z,67.45
2022-12-15T04:11:32.247Z,63.55
2022-12-15T04:14:00.151Z,67.28
2022-12-15T04:16:28.094Z,67.78
2022-12-15T04:19:10.030Z,65.40
2022-12-15T04:21:40.291Z,66.18
2022-12-15T04:24:25.844Z,68.88
2022-12-15T04:27:12.411Z,72.95
2022-12-15T04:29:57.941Z,74.90
2022-12-15T04:32:43.370Z,68.90
2022-12-15T04:35:30.221Z,69.32
2022-12-15T04:38:15.761Z,74.55
2022-12-15T04:41:01.281Z,71.43
2022-12-15T04:43:48.201Z,70.93
2022-12-15T04:46:33.681Z,67.53
2022-12-15T04:49:19.070Z,63.88
2022-12-15T04:52:04.397Z,68.70
2022-12-15T04:54:50.128Z,67.82
2022-12-15T04:57:35.627Z,70.57
2022-12-15T05:00:23.354Z,68.57
2022-12-15T05:03:11.322Z,68.63
2022-12-15T05:06:00.424Z,66.55
2022-12-15T05:08:45.811Z,66.03
2022-12-15T05:11:35.419Z,62.00
2022-12-15T05:14:20.858Z,67.75
2022-12-15T05:17:07.813Z,66.38
2022-12-15T05:19:53.245Z,71.68
2022-12-15T05:22:38.650Z,72.30
2022-12-15T05:25:24.444Z,69.47
2022-12-15T05:28:10.091Z,69.95
2022-12-15T05:30:55.742Z,69.57
2022-12-15T05:33:25.088Z,69.60
2022-12-15T05:35:52.953Z,66.43
2022-12-15T05:38:20.849Z,59.53
2022-12-15T05:40:48.837Z,63.80
2022-12-15T05:43:20.463Z,64.25
2022-12-15T05:45:52.704Z,67.90
2022-12-15T05:48:20.675Z,69.30
2022-12-15T05:50:50.506Z,70.85
2022-12-15T05:53:18.400Z,64.53
2022-12-15T05:55:46.354Z,68.32
2022-12-15T05:58:14.429Z,70.32
2022-12-15T06:00:42.373Z,73.38
2022-12-15T06:03:10.302Z,73.70
2022-12-15T06:05:38.501Z,78.72
2022-12-15T06:08:07.981Z,73.53
2022-12-15T06:10:35.997Z,72.30
2022-12-15T06:13:04.258Z,73.43
2022-12-15T06:15:32.161Z,72.65
2022-12-15T06:18:00.043Z,68.85
2022-12-15T06:20:27.949Z,74.28
2022-12-15T06:22:56.098Z,76.57
2022-12-15T06:25:25.430Z,73.38
2022-12-15T06:27:58.336Z,72.38
2022-12-15T06:30:29.473Z,72.45
2022-12-15T06:32:57.632Z,75.60
2022-12-15T06:35:25.539Z,77.65
2022-12-15T06:37:53.504Z,80.00
2022-12-15T06:40:21.431Z,82.00
2022-12-15T06:42:50.688Z,78.72
2022-12-15T06:45:18.529Z,76.57
2022-12-15T06:47:46.399Z,74.22
2022-12-15T06:50:14.505Z,79.68
2022-12-15T06:52:42.616Z,73.32
2022-12-15T06:55:11.066Z,74.63
2022-12-15T06:57:38.996Z,70.90
2022-12-15T07:00:10.078Z,75.32
2022-12-15T07:02:38.211Z,70.57
2022-12-15T07:05:06.809Z,75.20
2022-12-15T07:07:34.930Z,74.38
2022-12-15T07:10:02.872Z,74.57
2022-12-15T07:12:31.094Z,71.30
2022-12-15T07:14:59.140Z,73.72
2022-12-15T07:17:28.643Z,73.20
2022-12-15T07:19:57.023Z,73.03
2022-12-15T07:22:25.202Z,76.50
2022-12-15T07:24:53.181Z,76.32
2022-12-15T07:27:21.256Z,74.40
2022-12-15T07:29:49.128Z,79.80
2022-12-15T07:32:17.216Z,80.68
2022-12-15T07:34:46.854Z,80.15
2022-12-15T07:37:16.847Z,79.88
2022-12-15T07:39:44.856Z,80.00
2022-12-15T07:42:12.796Z,84.03
2022-12-15T07:44:40.878Z,83.07
2022-12-15T07:47:08.884Z,77.32
2022-12-15T07:49:36.843Z,84.38
2022-12-15T07:52:06.290Z,82.45
2022-12-15T07:54:34.534Z,79.60
2022-12-15T07:57:02.988Z,81.55
2022-12-15T07:59:30.964Z,80.57
2022-12-15T08:02:00.673Z,76.72
2022-12-15T08:04:28.959Z,69.78
2022-12-15T08:06:57.483Z,71.80
2022-12-15T08:09:27.041Z,71.75
2022-12-15T08:11:55.038Z,88.40
2022-12-15T08:14:23.530Z,73.95
2022-12-15T08:16:52.053Z,65.35
2022-12-15T08:19:20.035Z,59.83
2022-12-15T08:21:48.690Z,60.35
2022-12-15T08:24:19.250Z,59.30
2022-12-15T08:26:50.190Z,57.67
2022-12-15T08:32:07.451Z,61.75
2022-12-15T08:34:35.824Z,62.78
2022-12-15T08:37:03.793Z,67.43
2022-12-15T08:39:31.884Z,76.63
2022-12-15T08:42:01.424Z,69.80
2022-12-15T08:44:29.580Z,67.82
2022-12-15T08:46:57.630Z,65.65
2022-12-15T08:49:25.771Z,71.82
2022-12-15T08:51:53.784Z,113.28
2022-12-15T08:54:22.299Z,68.20
2022-12-15T08:56:50.327Z,63.42
2022-12-15T08:59:20.249Z,67.20
2022-12-15T09:01:48.607Z,137.23
2022-12-15T09:04:16.883Z,107.20
2022-12-15T09:06:50.589Z,78.53
2022-12-15T09:09:18.962Z,70.72
2022-12-15T09:11:46.967Z,78.00
2022-12-15T09:14:15.749Z,72.07
2022-12-15T09:16:50.645Z,86.97
2022-12-15T09:19:19.135Z,71.35
2022-12-15T09:21:48.170Z,65.63
2022-12-15T09:24:25.872Z,64.93
2022-12-15T09:27:00.497Z,60.53
2022-12-15T09:29:28.756Z,63.85
2022-12-15T09:31:58.145Z,69.03
2022-12-15T09:34:26.120Z,64.43
2022-12-15T09:36:54.206Z,64.85
2022-12-15T09:39:22.188Z,66.22
2022-12-15T09:41:54.980Z,72.85
2022-12-15T09:44:25.591Z,80.22
2022-12-15T09:47:07.972Z,70.18
2022-12-15T09:49:49.221Z,76.13
2022-12-15T09:52:20.094Z,73.45
2022-12-15T09:54:48.168Z,64.00
2022-12-15T09:57:24.736Z,69.90
2022-12-15T10:00:07.374Z,61.85
2022-12-15T10:03:01.912Z,69.78
2022-12-15T10:06:06.912Z,70.63
2022-12-15T10:08:34.278Z,88.85
2022-12-15T10:11:05.498Z,135.23
2022-12-15T10:13:41.721Z,86.50
2022-12-15T10:16:20.121Z,91.78
2022-12-15T10:19:01.397Z,83.03
2022-12-15T10:21:32.008Z,72.05
2022-12-15T10:24:09.080Z,68.80
2022-12-15T10:26:37.317Z,91.28
2022-12-15T10:29:19.583Z,66.85
2022-12-15T10:31:53.337Z,70.28
2022-12-15T10:34:28.270Z,67.75
2022-12-15T10:36:57.864Z,68.93
2022-12-15T10:39:39.124Z,71.15
2022-12-15T10:42:16.305Z,78.75
2022-12-15T10:44:50.609Z,88.63
2022-12-15T10:47:21.840Z,79.13
2022-12-15T10:49:51.497Z,72.75
2022-12-15T10:52:27.281Z,96.03
2022-12-15T10:54:56.236Z,96.22
2022-12-15T10:57:28.768Z,74.38
2022-12-15T11:00:00.954Z,82.28
2022-12-15T11:02:34.259Z,78.60
2022-12-15T11:05:06.870Z,78.13
2022-12-15T11:07:38.800Z,79.90
2022-12-15T11:10:17.039Z,77.53
2022-12-15T11:12:58.296Z,79.97
2022-12-15T11:15:47.152Z,78.82
2022-12-15T11:18:36.372Z,76.03
2022-12-15T11:21:12.599Z,73.40
2022-12-15T11:23:50.333Z,76.43
2022-12-15T11:26:27.514Z,80.55
2022-12-15T11:29:00.318Z,77.97
2022-12-15T11:31:35.166Z,83.00
2022-12-15T11:34:03.237Z,74.93
2022-12-15T11:36:54.639Z,70.13
2022-12-15T11:39:35.544Z,73.53
2022-12-15T11:42:13.288Z,71.13
2022-12-15T11:44:52.595Z,77.30
2022-12-15T11:47:31.579Z,79.18
2022-12-15T11:50:15.955Z,78.07
2022-12-15T11:52:57.842Z,79.18
2022-12-15T11:55:41.170Z,76.47
2022-12-15T11:58:39.297Z,74.60
2022-12-15T12:01:15.476Z,73.93
2022-12-15T12:03:55.688Z,78.70
2022-12-15T12:06:33.689Z,81.72
2022-12-15T12:09:17.501Z,82.25
2022-12-15T12:11:50.728Z,95.03
2022-12-15T12:14:32.891Z,95.68
2022-12-15T12:17:06.481Z,92.88
2022-12-15T12:19:42.456Z,79.82
2022-12-15T12:22:21.009Z,94.10
2022-12-15T12:24:56.607Z,79.60
2022-12-15T12:27:30.109Z,80.20
2022-12-15T12:30:03.193Z,73.65
2022-12-15T12:32:40.366Z,74.15
2022-12-15T12:35:30.488Z,73.70
2022-12-15T12:38:04.733Z,74.13
2022-12-15T12:40:56.503Z,74.30
2022-12-15T12:43:34.088Z,76.13
2022-12-15T12:46:07.840Z,77.18
2022-12-15T12:48:39.987Z,75.82
2022-12-15T12:51:18.785Z,71.80
2022-12-15T12:53:46.989Z,69.82
2022-12-15T12:56:50.603Z,70.47
2022-12-15T12:59:51.859Z,66.28
2022-12-15T13:02:45.125Z,72.32
2022-12-15T13:05:31.871Z,66.90
2022-12-15T13:08:19.753Z,66.43
2022-12-15T13:10:50.837Z,65.70
2022-12-15T13:13:41.989Z,67.28
2022-12-15T13:16:18.837Z,65.95
2022-12-15T13:19:03.412Z,60.22
2022-12-15T13:21:55.219Z,57.08
2022-12-15T13:24:40.135Z,55.85
2022-12-15T13:27:15.736Z,56.28
2022-12-15T13:30:01.628Z,61.22
2022-12-15T13:32:32.687Z,55.53
2022-12-15T13:35:20.112Z,57.22
2022-12-15T13:37:53.992Z,59.03
2022-12-15T13:40:33.870Z,53.78
2022-12-15T13:43:11.373Z,58.15
2022-12-15T13:45:57.006Z,61.47
2022-12-15T13:48:38.458Z,63.65
2022-12-15T13:51:23.013Z,59.75
2022-12-15T13:53:57.253Z,59.40
2022-12-15T13:56:42.873Z,61.00
2022-12-15T13:59:19.892Z,57.20
2022-12-15T14:01:55.986Z,55.60
2022-12-15T14:04:24.253Z,58.78
2022-12-15T14:06:55.220Z,59.75
2022-12-15T14:09:28.715Z,61.03
2022-12-15T14:11:58.083Z,58.58
2022-12-15T14:14:30.093Z,57.80
2022-12-15T14:17:02.617Z,58.45
2022-12-15T14:19:51.176Z,57.65
2022-12-15T14:22:28.687Z,55.60
2022-12-15T14:25:19.591Z,54.75
2022-12-15T14:27:50.761Z,56.92
2022-12-15T14:30:25.489Z,63.30
2022-12-15T14:33:00.807Z,60.10
2022-12-15T14:35:32.640Z,59.97
2022-12-15T14:38:03.816Z,58.83
2022-12-15T14:40:32.908Z,62.80
2022-12-15T14:43:01.254Z,62.30
2022-12-15T14:45:33.497Z,60.67
2022-12-15T14:48:39.993Z,64.03
2022-12-15T14:51:01.698Z,58.67
2022-12-15T14:53:34.275Z,61.03
2022-12-15T14:59:22.719Z,65.35
2022-12-15T15:03:09.675Z,69.85
2022-12-15T15:04:43.236Z,66.13
2022-12-15T15:07:19.036Z,67.07
2022-12-15T15:09:47.786Z,64.28
2022-12-15T15:12:18.155Z,65.55
2022-12-15T15:14:49.202Z,78.72
2022-12-15T15:17:31.705Z,64.97
2022-12-15T15:20:03.614Z,68.05
2022-12-15T15:22:37.134Z,65.60
2022-12-15T15:25:26.312Z,74.35
2022-12-15T15:28:02.739Z,72.45
2022-12-15T15:30:41.001Z,68.30
2022-12-15T15:33:10.552Z,68.07
2022-12-15T15:35:40.609Z,70.15
2022-12-15T15:38:18.574Z,75.53
2022-12-15T15:40:51.181Z,74.70
2022-12-15T15:43:19.625Z,73.80
2022-12-15T15:45:48.281Z,73.80
2022-12-15T15:48:22.198Z,70.40
2022-12-15T15:50:51.658Z,80.45
2022-12-15T15:53:23.481Z,76.60
2022-12-15T15:55:53.682Z,79.22
2022-12-15T15:58:21.854Z,72.93
2022-12-15T16:00:49.994Z,73.30
2022-12-15T16:03:18.183Z,66.78
2022-12-15T16:05:46.681Z,71.68
2022-12-15T16:08:19.045Z,68.88
2022-12-15T16:10:49.404Z,68.15
2022-12-15T16:13:25.506Z,65.90
2022-12-15T16:15:54.455Z,65.80
2022-12-15T16:18:22.966Z,74.35
2022-12-15T16:20:52.707Z,79.78
2022-12-15T16:23:24.052Z,77.93
2022-12-15T16:25:54.232Z,181.73
2022-12-15T16:28:23.626Z,86.70
2022-12-15T16:30:52.312Z,72.00
2022-12-15T16:33:20.667Z,74.10
2022-12-15T16:35:50.381Z,75.07
2022-12-15T16:38:25.274Z,72.75
2022-12-15T16:40:55.513Z,73.07
2022-12-15T16:43:25.055Z,66.10
2022-12-15T16:45:55.892Z,72.05
2022-12-15T16:48:23.921Z,78.13
2022-12-15T16:50:53.498Z,73.15
2022-12-15T16:53:28.502Z,69.63
2022-12-15T16:55:58.311Z,63.08
2022-12-15T16:58:27.918Z,68.90
2022-12-15T17:00:56.155Z,115.10
2022-12-15T17:03:26.615Z,85.50
2022-12-15T17:05:57.211Z,75.07
2022-12-15T17:08:30.514Z,85.78
2022-12-15T17:10:58.801Z,97.40
2022-12-15T17:13:37.664Z,81.03
2022-12-15T17:16:14.776Z,79.00
2022-12-15T17:18:44.599Z,86.97
2022-12-15T17:21:16.028Z,66.38
2022-12-15T17:23:46.741Z,75.43
2022-12-15T17:26:28.143Z,72.13
2022-12-15T17:28:59.727Z,76.78
2022-12-15T17:31:34.435Z,70.05
2022-12-15T17:34:09.538Z,63.55
2022-12-15T17:36:37.849Z,63.88
2022-12-15T17:39:10.715Z,77.28
2022-12-15T17:44:34.185Z,67.80
2022-12-15T17:47:04.299Z,65.60
2022-12-15T17:49:36.240Z,59.65
2022-12-15T17:52:09.136Z,57.90
2022-12-15T17:54:38.641Z,60.90
2022-12-15T17:57:10.166Z,60.30
2022-12-15T17:59:38.069Z,62.72
2022-12-15T18:02:06.329Z,59.95
2022-12-15T18:04:35.339Z,58.03
2022-12-15T18:07:03.316Z,57.72
2022-12-15T18:09:31.553Z,66.40
2022-12-15T18:12:00.907Z,60.58
2022-12-15T18:14:29.420Z,58.00
2022-12-15T18:16:57.402Z,56.85
2022-12-15T18:19:27.984Z,59.75
2022-12-15T18:21:59.620Z,53.10
2022-12-15T18:24:28.085Z,56.72
2022-12-15T18:26:56.016Z,51.50
2022-12-15T18:29:25.428Z,60.78
2022-12-15T18:31:53.552Z,57.78
2022-12-15T18:34:22.884Z,66.95
2022-12-15T18:36:51.497Z,64.15
2022-12-15T18:39:23.207Z,66.18
2022-12-15T18:41:52.387Z,60.30
2022-12-15T18:44:23.784Z,65.68
2022-12-15T18:46:55.544Z,62.50
2022-12-15T18:49:23.887Z,59.50
2022-12-15T18:51:52.056Z,61.85
2022-12-15T18:54:22.439Z,69.95
2022-12-15T18:56:51.740Z,64.45
2022-12-15T18:59:20.372Z,73.07
2022-12-15T19:01:49.646Z,69.47
2022-12-15T19:04:19.115Z,66.13
2022-12-15T19:06:47.137Z,65.65
2022-12-15T19:09:17.410Z,65.10
2022-12-15T19:12:17.484Z,62.67
2022-12-15T19:14:46.944Z,65.82
2022-12-15T19:17:33.853Z,69.18
2022-12-15T19:20:21.972Z,62.60
2022-12-15T19:22:50.472Z,67.65
2022-12-15T19:25:25.745Z,69.18
2022-12-15T19:27:58.678Z,66.95
2022-12-15T19:30:28.591Z,87.38
2022-12-15T19:32:56.615Z,93.93
2022-12-15T19:35:27.264Z,77.18
2022-12-15T19:37:58.804Z,78.45
2022-12-15T19:40:30.319Z,72.78
2022-12-15T19:43:00.103Z,76.00
2022-12-15T19:45:29.699Z,71.28
2022-12-15T19:47:58.067Z,77.10
2022-12-15T19:50:30.215Z,78.18
2022-12-15T19:53:00.845Z,75.95
2022-12-15T19:55:32.679Z,79.82
2022-12-15T19:58:00.864Z,75.55
2022-12-15T20:00:29.156Z,74.07
2022-12-15T20:02:57.384Z,81.20
2022-12-15T20:05:27.760Z,80.38
2022-12-15T20:07:56.170Z,84.50
2022-12-15T20:10:32.107Z,79.10
2022-12-15T20:13:01.138Z,75.88
2022-12-15T20:15:29.209Z,71.63
2022-12-15T20:17:58.706Z,68.18
2022-12-15T20:20:29.922Z,67.10
2022-12-15T20:23:00.739Z,70.13
2022-12-15T20:25:31.188Z,66.40
2022-12-15T20:28:00.699Z,69.43
2022-12-15T20:30:32.971Z,62.78
2022-12-15T20:33:00.969Z,69.95
2022-12-15T20:35:33.221Z,64.55
2022-12-15T20:38:02.205Z,67.43
2022-12-15T20:40:31.499Z,62.78
2022-12-15T20:42:59.430Z,68.80
2022-12-15T20:45:28.086Z,65.57
2022-12-15T20:47:57.467Z,67.35
2022-12-15T20:50:33.840Z,64.70
2022-12-15T20:53:02.069Z,69.72
2022-12-15T20:55:30.313Z,67.63
2022-12-15T20:57:58.303Z,64.30
2022-12-15T21:00:26.570Z,66.20
2022-12-15T21:02:55.011Z,70.13
2022-12-15T21:05:25.919Z,67.35
2022-12-15T21:07:55.238Z,73.13
2022-12-15T21:10:23.180Z,65.85
2022-12-15T21:12:51.773Z,65.82
2022-12-15T21:15:22.769Z,67.85
2022-12-15T21:18:11.027Z,66.10
2022-12-15T21:20:42.125Z,65.82
2022-12-15T21:23:21.948Z,69.32
2022-12-15T21:25:50.510Z,72.32
2022-12-15T21:28:18.767Z,66.60
2022-12-15T21:30:46.802Z,69.38
2022-12-15T21:33:15.281Z,67.85
2022-12-15T21:35:46.004Z,68.97
2022-12-15T21:38:33.021Z,74.10
2022-12-15T21:41:03.869Z,78.93
2022-12-15T21:43:34.535Z,81.97
2022-12-15T21:46:04.223Z,91.20
2022-12-15T21:48:50.028Z,83.60
2022-12-15T21:51:20.857Z,78.93
2022-12-15T21:53:50.624Z,79.70
2022-12-15T21:56:20.103Z,80.18
2022-12-15T21:58:51.342Z,78.18
2022-12-15T22:01:23.259Z,74.05
2022-12-15T22:03:53.687Z,70.90
2022-12-15T22:06:25.455Z,80.25
2022-12-15T22:08:55.819Z,74.40
2022-12-15T22:11:25.681Z,76.07
2022-12-15T22:13:55.287Z,76.90
2022-12-15T22:16:24.095Z,78.88
2022-12-15T22:18:55.177Z,80.13
2022-12-15T22:21:23.096Z,82.28
2022-12-15T22:23:51.563Z,81.53
2022-12-15T22:26:23.680Z,75.10
2022-12-15T22:28:52.356Z,85.53
2022-12-15T22:31:22.866Z,75.30
2022-12-15T22:33:53.641Z,80.65
2022-12-15T22:36:23.143Z,82.90
2022-12-15T22:38:51.075Z,82.53
2022-12-15T22:41:22.784Z,81.38
2022-12-15T22:43:53.055Z,81.07
2022-12-15T22:46:25.434Z,86.47
2022-12-15T22:48:55.111Z,90.03
2022-12-15T22:51:23.252Z,82.22
2022-12-15T22:53:51.744Z,85.00
2022-12-15T22:56:27.444Z,83.30
2022-12-15T22:58:59.868Z,93.10
2022-12-15T23:01:28.926Z,82.15
2022-12-15T23:03:57.317Z,87.88
2022-12-15T23:06:27.315Z,95.45
2022-12-15T23:08:56.237Z,93.18
2022-12-15T23:11:36.893Z,91.90
2022-12-15T23:14:05.652Z,89.15
2022-12-15T23:16:33.465Z,91.80
2022-12-15T23:19:03.155Z,93.97
2022-12-15T23:21:31.368Z,90.63
2022-12-15T23:23:59.221Z,90.20
2022-12-15T23:26:29.225Z,88.45
2022-12-15T23:28:57.143Z,100.15
2022-12-15T23:31:25.262Z,90.78
2022-12-15T23:33:54.058Z,93.07
2022-12-15T23:36:21.998Z,89.18
2022-12-15T23:38:50.291Z,88.93
2022-12-15T23:41:19.866Z,91.43
2022-12-15T23:43:49.523Z,92.85
2022-12-15T23:46:18.539Z,88.03
2022-12-15T23:48:46.549Z,96.30
2022-12-15T23:51:16.776Z,94.90
2022-12-15T23:53:46.089Z,93.82
2022-12-15T23:56:15.856Z,93.43
2022-12-15T23:58:45.941Z,85.82
